METAR Data
IDs: Format: Raw Decoded Include TAF

Data at: 0135 UTC 23 Apr 2021

KMGJ 230054Z AUTO 30006KT 10SM CLR 02/M05 A2990 RMK AO2 SLP129 T00221050